createdAt,value
2022-08-19T00:00:00.026Z,96.28
2022-08-19T00:01:00.014Z,96.17
2022-08-19T00:02:00.180Z,95.37
2022-08-19T00:03:00.005Z,95.87
2022-08-19T00:04:00.005Z,95.37
2022-08-19T00:05:00.028Z,96.17
2022-08-19T00:05:59.984Z,96.68
2022-08-19T00:06:59.973Z,96.78
2022-08-19T00:07:59.965Z,96.48
2022-08-19T00:08:59.974Z,96.17
2022-08-19T00:09:59.953Z,96.08
2022-08-19T00:10:59.954Z,96.28
2022-08-19T00:11:59.943Z,96.08
2022-08-19T00:12:59.940Z,95.97
2022-08-19T00:13:59.934Z,96.62
2022-08-19T00:14:59.925Z,97.03
2022-08-19T00:15:59.914Z,96.92
2022-08-19T00:16:59.904Z,96.78
2022-08-19T00:17:59.903Z,96.37
2022-08-19T00:18:59.923Z,96.28
2022-08-19T00:19:59.886Z,96.17
2022-08-19T00:20:59.883Z,96.17
2022-08-19T00:21:59.873Z,95.57
2022-08-19T00:22:59.872Z,95.37
2022-08-19T00:23:59.872Z,95.37
2022-08-19T00:24:59.852Z,95.97
2022-08-19T00:25:59.844Z,95.97
2022-08-19T00:27:25.294Z,95.72
2022-08-19T00:27:59.841Z,96.58
2022-08-19T00:28:59.843Z,96.92
2022-08-19T00:29:59.833Z,96.17
2022-08-19T00:30:59.839Z,96.08
2022-08-19T00:31:59.802Z,96.08
2022-08-19T00:32:59.801Z,96.22
2022-08-19T00:33:59.810Z,96.42
2022-08-19T00:34:59.800Z,96.42
2022-08-19T00:35:59.781Z,96.83
2022-08-19T00:36:59.779Z,97.23
2022-08-19T00:37:59.781Z,97.33
2022-08-19T00:38:59.763Z,96.83
2022-08-19T00:39:59.808Z,96.52
2022-08-19T00:40:59.752Z,96.62
2022-08-19T00:41:59.745Z,97.13
2022-08-19T00:42:59.759Z,97.43
2022-08-19T00:43:59.729Z,97.43
2022-08-19T00:44:59.722Z,97.53
2022-08-19T00:45:59.711Z,97.53
2022-08-19T00:46:59.711Z,96.72
2022-08-19T00:47:59.752Z,97.03
2022-08-19T00:48:59.692Z,97.33
2022-08-19T00:49:59.680Z,97.53
2022-08-19T00:50:59.683Z,97.43
2022-08-19T00:51:59.670Z,97.43
2022-08-19T00:52:59.670Z,97.23
2022-08-19T00:53:59.667Z,97.23
2022-08-19T00:54:59.650Z,97.27
2022-08-19T00:55:59.731Z,97.03
2022-08-19T00:56:59.642Z,97.13
2022-08-19T00:57:59.651Z,97.33
2022-08-19T00:58:59.622Z,97.33
2022-08-19T01:00:02.412Z,96.92
2022-08-19T01:00:59.609Z,96.83
2022-08-19T01:01:59.694Z,96.62
2022-08-19T01:02:59.619Z,96.42
2022-08-19T01:03:59.597Z,96.32
2022-08-19T01:04:59.590Z,96.47
2022-08-19T01:05:59.579Z,96.97
2022-08-19T01:06:59.578Z,97.38
2022-08-19T01:07:59.578Z,97.67
2022-08-19T01:08:59.569Z,97.98
2022-08-19T01:09:59.548Z,97.78
2022-08-19T01:10:59.543Z,97.78
2022-08-19T01:11:59.543Z,97.63
2022-08-19T01:12:59.624Z,97.63
2022-08-19T01:13:59.538Z,97.33
2022-08-19T01:14:59.540Z,97.23
2022-08-19T01:15:59.549Z,97.23
2022-08-19T01:16:59.528Z,96.72
2022-08-19T01:17:59.529Z,96.83
2022-08-19T01:18:59.507Z,97.03
2022-08-19T01:19:59.478Z,97.03
2022-08-19T01:20:59.478Z,97.13
2022-08-19T01:21:59.468Z,96.92
2022-08-19T01:22:59.458Z,96.92
2022-08-19T01:23:59.458Z,97.13
2022-08-19T01:24:59.489Z,97.43
2022-08-19T01:25:59.447Z,97.53
2022-08-19T01:26:59.458Z,97.43
2022-08-19T01:28:06.434Z,97.13
2022-08-19T01:29:00.844Z,96.83
2022-08-19T01:29:59.427Z,96.87
2022-08-19T01:30:59.407Z,96.62
2022-08-19T01:31:59.398Z,96.87
2022-08-19T01:32:59.396Z,97.03
2022-08-19T01:33:59.396Z,96.77
2022-08-19T01:34:59.386Z,97.38
2022-08-19T01:35:59.366Z,97.38
2022-08-19T01:36:59.377Z,97.27
2022-08-19T01:37:59.375Z,97.38
2022-08-19T01:38:59.376Z,97.38
2022-08-19T01:39:59.434Z,97.23
2022-08-19T01:40:59.343Z,96.92
2022-08-19T01:41:59.328Z,96.72
2022-08-19T01:42:59.328Z,96.77
2022-08-19T01:44:13.665Z,96.72
2022-08-19T01:44:59.336Z,96.77
2022-08-19T01:45:59.307Z,96.72
2022-08-19T01:46:59.307Z,96.77
2022-08-19T01:48:01.987Z,96.97
2022-08-19T01:48:59.297Z,97.17
2022-08-19T01:49:59.284Z,97.38
2022-08-19T01:50:59.275Z,97.47
2022-08-19T01:51:59.265Z,97.27
2022-08-19T01:53:06.210Z,96.87
2022-08-19T01:53:59.295Z,96.97
2022-08-19T01:54:59.257Z,96.97
2022-08-19T01:55:59.234Z,96.87
2022-08-19T01:56:59.240Z,96.97
2022-08-19T01:57:59.254Z,97.38
2022-08-19T01:58:59.236Z,97.58
2022-08-19T01:59:59.206Z,97.58
2022-08-19T02:00:59.264Z,97.67
2022-08-19T02:01:59.194Z,97.58
2022-08-19T02:02:59.197Z,97.47
2022-08-19T02:03:59.213Z,97.38
2022-08-19T02:04:59.184Z,97.27
2022-08-19T02:05:59.163Z,97.47
2022-08-19T02:06:59.166Z,97.47
2022-08-19T02:07:59.155Z,97.67
2022-08-19T02:08:59.191Z,97.47
2022-08-19T02:09:59.154Z,97.62
2022-08-19T02:10:59.143Z,97.72
2022-08-19T02:11:59.194Z,97.78
2022-08-19T02:12:59.124Z,97.38
2022-08-19T02:13:59.143Z,97.58
2022-08-19T02:14:59.142Z,97.58
2022-08-19T02:15:59.103Z,97.67
2022-08-19T02:16:59.101Z,97.62
2022-08-19T02:17:59.084Z,97.38
2022-08-19T02:18:59.103Z,97.52
2022-08-19T02:19:59.103Z,97.82
2022-08-19T02:20:59.069Z,98.02
2022-08-19T02:21:59.065Z,98.13
2022-08-19T02:22:59.052Z,98.22
2022-08-19T02:23:59.104Z,98.33
2022-08-19T02:24:59.074Z,98.33
2022-08-19T02:25:59.045Z,98.43
2022-08-19T02:26:59.052Z,98.33
2022-08-19T02:27:59.032Z,98.33
2022-08-19T02:28:59.024Z,98.22
2022-08-19T02:29:59.027Z,98.33
2022-08-19T02:30:59.011Z,98.43
2022-08-19T02:31:59.001Z,98.43
2022-08-19T02:32:59.287Z,98.22
2022-08-19T02:33:58.990Z,98.22
2022-08-19T02:34:58.990Z,98.33
2022-08-19T02:35:58.970Z,98.33
2022-08-19T02:37:03.464Z,98.43
2022-08-19T02:37:58.950Z,98.53
2022-08-19T02:38:58.961Z,98.43
2022-08-19T02:39:59.712Z,98.33
2022-08-19T02:40:58.939Z,98.22
2022-08-19T02:41:59.012Z,98.33
2022-08-19T02:42:58.919Z,98.43
2022-08-19T02:44:26.695Z,98.33
2022-08-19T02:44:58.900Z,98.22
2022-08-19T02:45:58.899Z,98.02
2022-08-19T02:46:58.901Z,97.82
2022-08-19T02:47:58.900Z,98.22
2022-08-19T02:48:58.942Z,98.53
2022-08-19T02:49:58.879Z,98.73
2022-08-19T02:50:59.080Z,98.78
2022-08-19T02:51:59.440Z,98.88
2022-08-19T02:52:58.857Z,98.88
2022-08-19T02:53:58.864Z,98.88
2022-08-19T02:54:58.859Z,98.98
2022-08-19T02:55:58.850Z,98.98
2022-08-19T02:56:58.853Z,99.08
2022-08-19T02:57:58.820Z,99.08
2022-08-19T02:58:58.829Z,99.08
2022-08-19T02:59:58.818Z,99.08
2022-08-19T03:00:58.837Z,98.83
2022-08-19T03:01:58.797Z,98.98
2022-08-19T03:02:58.839Z,98.88
2022-08-19T03:03:58.789Z,98.78
2022-08-19T03:04:58.768Z,98.68
2022-08-19T03:05:58.786Z,98.68
2022-08-19T03:07:07.204Z,98.47
2022-08-19T03:07:58.758Z,98.37
2022-08-19T03:08:58.757Z,98.47
2022-08-19T03:09:58.750Z,98.68
2022-08-19T03:10:58.736Z,98.88
2022-08-19T03:11:58.728Z,98.98
2022-08-19T03:12:58.718Z,98.88
2022-08-19T03:13:58.709Z,98.82
2022-08-19T03:14:58.715Z,98.72
2022-08-19T03:15:58.697Z,98.62
2022-08-19T03:16:58.686Z,98.62
2022-08-19T03:17:58.690Z,98.42
2022-08-19T03:18:58.690Z,98.52
2022-08-19T03:19:58.699Z,98.82
2022-08-19T03:20:58.679Z,99.84
2022-08-19T03:21:59.029Z,99.99
2022-08-19T03:22:58.660Z,99.99
2022-08-19T03:23:59.140Z,99.99
2022-08-19T03:24:58.663Z,99.99
2022-08-19T03:26:15.617Z,99.99
2022-08-19T03:26:58.646Z,99.84
2022-08-19T03:27:58.639Z,99.53
2022-08-19T03:28:59.055Z,99.33
2022-08-19T03:29:58.678Z,99.13
2022-08-19T03:30:58.608Z,99.13
2022-08-19T03:31:58.599Z,99.02
2022-08-19T03:32:58.706Z,99.22
2022-08-19T03:33:58.595Z,99.22
2022-08-19T03:34:58.597Z,99.43
2022-08-19T03:35:58.597Z,99.22
2022-08-19T03:36:58.566Z,99.22
2022-08-19T03:37:58.574Z,99.43
2022-08-19T03:38:59.872Z,99.43
2022-08-19T03:39:58.664Z,99.43
2022-08-19T03:40:58.538Z,99.48
2022-08-19T03:42:32.362Z,99.38
2022-08-19T03:42:58.927Z,99.48
2022-08-19T03:43:58.538Z,99.88
2022-08-19T03:44:58.656Z,99.99
2022-08-19T03:45:58.817Z,99.84
2022-08-19T03:46:58.976Z,99.68
2022-08-19T03:47:58.500Z,99.88
2022-08-19T03:48:59.089Z,99.98
2022-08-19T03:49:58.497Z,99.99
2022-08-19T03:50:59.207Z,99.99
2022-08-19T03:51:58.475Z,99.99
2022-08-19T03:52:58.467Z,99.99
2022-08-19T03:53:58.454Z,99.99
2022-08-19T03:54:59.128Z,99.99
2022-08-19T03:55:58.445Z,99.99
2022-08-19T03:56:58.428Z,99.99
2022-08-19T03:57:59.446Z,99.73
2022-08-19T03:58:59.154Z,99.58
2022-08-19T04:00:03.958Z,99.58
2022-08-19T04:00:58.418Z,99.78
2022-08-19T04:01:58.763Z,99.99
2022-08-19T04:03:00.897Z,99.99
2022-08-19T04:03:58.482Z,99.99
2022-08-19T04:04:58.384Z,99.88
2022-08-19T04:05:58.595Z,99.88
2022-08-19T04:06:58.594Z,99.58
2022-08-19T04:07:58.704Z,99.38
2022-08-19T04:08:58.714Z,99.18
2022-08-19T04:09:58.823Z,98.97
2022-08-19T04:10:58.344Z,98.87
2022-08-19T04:11:58.333Z,98.97
2022-08-19T04:12:58.323Z,99.62
2022-08-19T04:13:58.326Z,99.99
2022-08-19T04:14:58.323Z,99.99
2022-08-19T04:15:58.313Z,99.99
2022-08-19T04:16:58.295Z,99.99
2022-08-19T04:17:58.464Z,99.99
2022-08-19T04:18:58.283Z,99.99
2022-08-19T04:19:58.574Z,99.99
2022-08-19T04:20:58.574Z,99.99
2022-08-19T04:21:58.291Z,99.99
2022-08-19T04:22:58.252Z,99.99
2022-08-19T04:23:58.253Z,99.99
2022-08-19T04:24:58.252Z,99.99
2022-08-19T04:25:58.514Z,99.99
2022-08-19T04:26:58.616Z,99.99
2022-08-19T04:27:58.222Z,99.99
2022-08-19T04:28:58.212Z,99.99
2022-08-19T04:29:58.342Z,99.99
2022-08-19T04:30:58.251Z,99.99
2022-08-19T04:31:58.192Z,99.99
2022-08-19T04:32:58.191Z,99.99
2022-08-19T04:33:58.182Z,99.99
2022-08-19T04:35:01.489Z,99.99
2022-08-19T04:35:58.171Z,99.99
2022-08-19T04:36:58.171Z,99.99
2022-08-19T04:37:58.164Z,99.99
2022-08-19T04:38:58.150Z,99.99
2022-08-19T04:39:58.794Z,99.99
2022-08-19T04:40:59.191Z,99.99
2022-08-19T04:41:58.131Z,99.99
2022-08-19T04:42:58.120Z,99.99
2022-08-19T04:44:01.262Z,99.99
2022-08-19T04:44:58.432Z,99.99
2022-08-19T04:46:01.144Z,99.99
2022-08-19T04:46:58.095Z,99.99
2022-08-19T04:48:26.164Z,99.99
2022-08-19T04:48:58.669Z,99.99
2022-08-19T04:49:59.080Z,99.99
2022-08-19T04:50:58.069Z,99.99
2022-08-19T04:51:58.080Z,99.99
2022-08-19T04:52:58.051Z,99.99
2022-08-19T04:53:58.040Z,99.99
2022-08-19T04:54:58.198Z,99.99
2022-08-19T04:55:58.029Z,99.99
2022-08-19T04:56:58.019Z,99.99
2022-08-19T04:57:58.019Z,99.99
2022-08-19T04:58:58.007Z,99.99
2022-08-19T04:59:58.019Z,99.99
2022-08-19T05:00:57.992Z,99.99
2022-08-19T05:01:58.028Z,99.99
2022-08-19T05:02:57.978Z,99.99
2022-08-19T05:03:57.979Z,99.99
2022-08-19T05:04:57.978Z,99.99
2022-08-19T05:05:57.976Z,99.99
2022-08-19T05:07:00.847Z,99.99
2022-08-19T05:07:58.007Z,99.99
2022-08-19T05:08:57.938Z,99.99
2022-08-19T05:09:59.189Z,99.99
2022-08-19T05:10:57.938Z,99.99
2022-08-19T05:11:57.947Z,99.99
2022-08-19T05:12:57.908Z,99.99
2022-08-19T05:13:57.918Z,99.99
2022-08-19T05:14:58.165Z,99.99
2022-08-19T05:15:57.897Z,99.99
2022-08-19T05:17:23.805Z,99.99
2022-08-19T05:17:57.886Z,99.99
2022-08-19T05:18:57.875Z,99.99
2022-08-19T05:19:57.897Z,99.99
2022-08-19T05:20:57.874Z,99.99
2022-08-19T05:21:57.870Z,99.99
2022-08-19T05:22:57.877Z,99.79
2022-08-19T05:23:57.847Z,99.58
2022-08-19T05:25:12.236Z,99.28
2022-08-19T05:25:57.836Z,99.08
2022-08-19T05:26:57.846Z,99.08
2022-08-19T05:27:57.866Z,99.18
2022-08-19T05:28:57.868Z,99.18
2022-08-19T05:29:57.845Z,99.08
2022-08-19T05:30:57.885Z,99.08
2022-08-19T05:31:57.935Z,99.28
2022-08-19T05:32:57.779Z,99.13
2022-08-19T05:33:57.785Z,99.13
2022-08-19T05:34:57.786Z,99.04
2022-08-19T05:35:57.781Z,98.93
2022-08-19T05:36:57.774Z,98.83
2022-08-19T05:37:59.131Z,98.83
2022-08-19T05:38:57.739Z,98.73
2022-08-19T05:39:57.879Z,98.53
2022-08-19T05:40:57.993Z,98.53
2022-08-19T05:41:57.785Z,98.33
2022-08-19T05:42:59.665Z,98.63
2022-08-19T05:43:57.786Z,98.73
2022-08-19T05:44:57.745Z,98.48
2022-08-19T05:45:57.695Z,98.48
2022-08-19T05:46:57.839Z,98.18
2022-08-19T05:47:57.683Z,98.28
2022-08-19T05:48:57.661Z,97.98
2022-08-19T05:49:57.675Z,97.73
2022-08-19T05:50:57.648Z,97.63
2022-08-19T05:51:57.709Z,97.53
2022-08-19T05:52:58.173Z,97.33
2022-08-19T05:53:57.744Z,97.13
2022-08-19T05:54:57.716Z,96.78
2022-08-19T05:55:57.612Z,96.58
2022-08-19T05:56:57.724Z,96.23
2022-08-19T05:57:57.737Z,95.93
2022-08-19T05:58:58.410Z,95.73
2022-08-19T05:59:58.858Z,95.18
2022-08-19T06:00:57.584Z,95.07
2022-08-19T06:01:57.583Z,94.33
2022-08-19T06:02:57.639Z,94.13
2022-08-19T06:03:57.563Z,94.13
2022-08-19T06:04:57.611Z,93.62
2022-08-19T06:05:57.561Z,93.48
2022-08-19T06:06:57.922Z,93.18
2022-08-19T06:07:57.541Z,93.08
2022-08-19T06:08:57.942Z,92.77
2022-08-19T06:10:00.306Z,92.68
2022-08-19T06:10:57.512Z,92.47
2022-08-19T06:11:57.618Z,92.57
2022-08-19T06:12:57.499Z,92.68
2022-08-19T06:14:00.248Z,92.88
2022-08-19T06:15:01.216Z,92.43
2022-08-19T06:15:57.481Z,92.03
2022-08-19T06:16:57.480Z,91.93
2022-08-19T06:17:57.469Z,92.03
2022-08-19T06:18:57.451Z,91.88
2022-08-19T06:19:57.470Z,91.58
2022-08-19T06:20:57.473Z,90.78
2022-08-19T06:21:57.441Z,90.88
2022-08-19T06:22:57.445Z,90.37
2022-08-19T06:23:57.430Z,90.58
2022-08-19T06:24:57.427Z,90.58
2022-08-19T06:25:57.420Z,91.08
2022-08-19T06:27:00.804Z,90.88
2022-08-19T06:28:14.915Z,90.48
2022-08-19T06:28:57.397Z,90.23
2022-08-19T06:29:57.399Z,90.13
2022-08-19T06:30:57.397Z,89.73
2022-08-19T06:31:57.395Z,89.63
2022-08-19T06:32:57.381Z,89.53
2022-08-19T06:33:57.371Z,89.39
2022-08-19T06:34:57.341Z,88.79
2022-08-19T06:35:57.361Z,88.59
2022-08-19T06:36:57.548Z,88.79
2022-08-19T06:37:57.479Z,88.68
2022-08-19T06:38:57.329Z,88.48
2022-08-19T06:39:57.420Z,88.14
2022-08-19T06:40:57.329Z,88.04
2022-08-19T06:41:58.996Z,88.24
2022-08-19T06:42:57.554Z,87.74
2022-08-19T06:43:57.286Z,88.04
2022-08-19T06:44:57.278Z,88.14
2022-08-19T06:45:57.672Z,88.44
2022-08-19T06:46:57.270Z,88.48
2022-08-19T06:47:57.278Z,88.89
2022-08-19T06:48:57.248Z,88.54
2022-08-19T06:50:01.075Z,88.84
2022-08-19T06:50:57.288Z,88.34
2022-08-19T06:51:57.228Z,88.00
2022-08-19T06:52:57.229Z,87.50
2022-08-19T06:53:57.218Z,86.96
2022-08-19T06:54:59.737Z,86.66
2022-08-19T06:55:57.218Z,86.35
2022-08-19T06:56:57.203Z,86.71
2022-08-19T06:57:57.726Z,86.61
2022-08-19T06:58:57.202Z,85.91
2022-08-19T06:59:57.178Z,85.51
2022-08-19T07:00:57.198Z,85.41
2022-08-19T07:01:57.158Z,85.71
2022-08-19T07:03:00.891Z,85.21
2022-08-19T07:03:57.509Z,85.21
2022-08-19T07:04:57.147Z,85.71
2022-08-19T07:05:57.148Z,85.82
2022-08-19T07:06:57.128Z,85.31
2022-08-19T07:08:01.614Z,85.51
2022-08-19T07:08:57.118Z,85.61
2022-08-19T07:10:00.882Z,85.07
2022-08-19T07:10:57.118Z,85.07
2022-08-19T07:11:57.098Z,85.23
2022-08-19T07:12:57.138Z,84.53
2022-08-19T07:13:57.079Z,83.93
2022-08-19T07:14:57.080Z,84.33
2022-08-19T07:15:57.662Z,84.43
2022-08-19T07:16:57.067Z,84.13
2022-08-19T07:17:57.056Z,83.83
2022-08-19T07:18:57.057Z,84.43
2022-08-19T07:19:57.037Z,84.13
2022-08-19T07:20:57.305Z,84.13
2022-08-19T07:21:57.026Z,84.43
2022-08-19T07:22:57.038Z,83.83
2022-08-19T07:23:57.006Z,83.69
2022-08-19T07:24:57.014Z,83.39
2022-08-19T07:25:57.066Z,83.79
2022-08-19T07:26:56.999Z,83.59
2022-08-19T07:27:57.070Z,83.29
2022-08-19T07:28:56.984Z,82.69
2022-08-19T07:29:57.518Z,82.99
2022-08-19T07:30:56.977Z,83.29
2022-08-19T07:31:56.958Z,83.05
2022-08-19T07:32:56.967Z,82.85
2022-08-19T07:33:56.949Z,82.25
2022-08-19T07:34:57.222Z,83.15
2022-08-19T07:35:56.946Z,82.45
2022-08-19T07:36:56.938Z,83.19
2022-08-19T07:37:56.917Z,83.29
2022-08-19T07:38:56.988Z,83.15
2022-08-19T07:39:56.938Z,82.91
2022-08-19T07:40:56.955Z,81.57
2022-08-19T07:45:27.509Z,80.83
2022-08-19T07:46:27.442Z,81.07
2022-08-19T07:47:50.390Z,80.88
2022-08-19T07:48:27.410Z,81.87
2022-08-19T07:49:27.411Z,81.18
2022-08-19T07:50:27.440Z,81.07
2022-08-19T07:51:28.711Z,80.83
2022-08-19T07:52:27.390Z,80.44
2022-08-19T07:53:27.402Z,79.84
2022-08-19T07:54:27.380Z,79.60
2022-08-19T07:55:41.310Z,80.10
2022-08-19T07:56:27.371Z,78.97
2022-08-19T07:57:27.367Z,77.57
2022-08-19T07:59:53.337Z,78.17
2022-08-19T08:00:53.316Z,78.27
2022-08-19T08:01:53.306Z,77.67
2022-08-19T08:02:55.459Z,78.03
2022-08-19T08:03:53.277Z,77.43
2022-08-19T08:04:53.266Z,76.83
2022-08-19T08:05:53.286Z,77.33
2022-08-19T08:06:53.255Z,77.43
2022-08-19T08:07:53.259Z,77.80
2022-08-19T08:08:53.259Z,77.50
2022-08-19T08:10:54.713Z,75.90
2022-08-19T08:11:53.248Z,76.40
2022-08-19T08:13:09.575Z,75.31
2022-08-19T08:14:01.495Z,76.06
2022-08-19T08:14:55.992Z,75.90
2022-08-19T08:15:53.229Z,75.90
2022-08-19T08:16:53.210Z,75.67
2022-08-19T08:17:53.208Z,75.93
2022-08-19T08:18:53.408Z,74.54
2022-08-19T08:19:53.192Z,73.94
2022-08-19T08:20:53.210Z,74.47
2022-08-19T08:21:53.176Z,74.47
2022-08-19T08:22:53.282Z,73.97
2022-08-19T08:23:54.486Z,74.07
2022-08-19T08:24:53.140Z,74.77
2022-08-19T08:25:53.199Z,74.73
2022-08-19T08:26:57.668Z,73.74
2022-08-19T08:27:53.713Z,73.68
2022-08-19T08:28:53.128Z,74.77
2022-08-19T08:29:53.131Z,74.57
2022-08-19T08:30:53.136Z,74.30
2022-08-19T08:31:58.494Z,76.00
2022-08-19T08:32:53.108Z,75.01
2022-08-19T08:33:53.109Z,75.70
2022-08-19T08:34:53.078Z,74.77
2022-08-19T08:35:53.101Z,74.43
2022-08-19T08:36:53.099Z,74.73
2022-08-19T08:37:53.258Z,72.94
2022-08-19T08:39:53.084Z,74.57
2022-08-19T08:40:53.041Z,74.10
2022-08-19T08:41:53.058Z,72.61
2022-08-19T08:42:53.164Z,73.44
2022-08-19T08:43:53.198Z,73.21
2022-08-19T08:45:53.494Z,72.85
2022-08-19T08:46:53.011Z,72.85
2022-08-19T08:47:53.024Z,73.74
2022-08-19T08:48:52.978Z,72.91
2022-08-19T08:49:52.969Z,71.78
2022-08-19T08:50:52.979Z,71.58
2022-08-19T08:51:59.730Z,73.00
2022-08-19T08:52:53.116Z,73.21
2022-08-19T08:53:56.203Z,72.51
2022-08-19T08:54:55.368Z,73.04
2022-08-19T08:55:52.935Z,73.24
2022-08-19T08:56:52.938Z,73.74
2022-08-19T08:57:52.930Z,73.08
2022-08-19T08:58:54.729Z,74.17
2022-08-19T08:59:52.900Z,73.24
2022-08-19T09:00:52.890Z,73.21
2022-08-19T09:01:52.963Z,71.58
2022-08-19T09:02:52.888Z,71.58
2022-08-19T09:03:52.898Z,72.01
2022-08-19T09:04:52.878Z,72.91
2022-08-19T09:05:52.868Z,72.74
2022-08-19T09:06:52.878Z,72.64
2022-08-19T09:07:52.848Z,73.64
2022-08-19T09:08:52.838Z,72.51
2022-08-19T09:09:52.838Z,72.11
2022-08-19T09:10:55.261Z,72.34
2022-08-19T09:11:52.837Z,72.64
2022-08-19T09:12:52.807Z,72.85
2022-08-19T09:13:53.187Z,73.24
2022-08-19T09:14:52.828Z,72.81
2022-08-19T09:15:52.798Z,71.55
2022-08-19T09:16:52.861Z,71.05
2022-08-19T09:17:52.945Z,71.28
2022-08-19T09:18:52.769Z,71.78
2022-08-19T09:19:52.780Z,70.72
2022-08-19T09:20:52.757Z,71.31
2022-08-19T09:21:52.946Z,71.01
2022-08-19T09:22:52.767Z,71.42
2022-08-19T09:23:52.779Z,71.51
2022-08-19T09:24:52.737Z,71.42
2022-08-19T09:25:52.739Z,71.88
2022-08-19T09:26:53.062Z,70.65
2022-08-19T09:27:52.748Z,70.22
2022-08-19T09:28:52.707Z,69.43
2022-08-19T09:29:52.706Z,68.73
2022-08-19T09:30:52.914Z,69.96
2022-08-19T09:31:52.720Z,71.08
2022-08-19T09:32:52.918Z,71.81
2022-08-19T09:33:52.687Z,72.44
2022-08-19T09:34:52.746Z,72.44
2022-08-19T09:35:53.512Z,72.44
2022-08-19T09:36:52.646Z,73.04
2022-08-19T09:37:52.668Z,71.88
2022-08-19T09:38:52.635Z,72.44
2022-08-19T09:39:52.698Z,71.72
2022-08-19T09:40:52.618Z,71.34
2022-08-19T09:41:52.619Z,67.83
2022-08-19T09:42:52.757Z,68.83
2022-08-19T09:43:52.621Z,68.40
2022-08-19T09:44:52.588Z,68.37
2022-08-19T09:45:52.587Z,66.15
2022-08-19T09:46:52.579Z,66.78
2022-08-19T09:47:54.956Z,66.18
2022-08-19T09:48:52.569Z,67.01
2022-08-19T09:49:52.577Z,68.33
2022-08-19T09:50:52.735Z,69.26
2022-08-19T09:51:52.557Z,69.79
2022-08-19T09:52:55.650Z,69.92
2022-08-19T09:53:52.853Z,71.01
2022-08-19T09:54:52.526Z,71.45
2022-08-19T09:55:52.518Z,70.12
2022-08-19T09:56:52.507Z,69.39
2022-08-19T09:57:52.625Z,68.66
2022-08-19T09:58:52.537Z,68.30
2022-08-19T09:59:52.487Z,66.98
2022-08-19T10:00:52.487Z,66.42
2022-08-19T10:01:52.570Z,65.56
2022-08-19T10:02:53.557Z,64.37
2022-08-19T10:03:52.508Z,64.67
2022-08-19T10:04:52.519Z,66.02
2022-08-19T10:05:55.257Z,65.82
2022-08-19T10:06:53.680Z,65.56
2022-08-19T10:07:52.503Z,66.28
2022-08-19T10:08:52.428Z,67.80
2022-08-19T10:09:52.425Z,68.63
2022-08-19T10:10:52.481Z,67.97
2022-08-19T10:11:54.611Z,68.63
2022-08-19T10:12:52.407Z,67.14
2022-08-19T10:13:52.408Z,67.14
2022-08-19T10:14:52.398Z,67.54
2022-08-19T10:15:52.379Z,66.58
2022-08-19T10:16:52.427Z,67.24
2022-08-19T10:17:55.298Z,66.38
2022-08-19T10:18:52.370Z,65.00
2022-08-19T10:19:55.959Z,63.15
2022-08-19T10:20:52.756Z,61.11
2022-08-19T10:21:52.339Z,60.59
2022-08-19T10:22:52.378Z,59.53
2022-08-19T10:23:52.329Z,60.16
2022-08-19T10:24:52.348Z,61.18
2022-08-19T10:25:52.317Z,61.80
2022-08-19T10:26:57.247Z,64.34
2022-08-19T10:27:52.333Z,63.87
2022-08-19T10:28:52.834Z,61.91
2022-08-19T10:29:52.277Z,63.24
2022-08-19T10:30:52.277Z,62.54
2022-08-19T10:31:59.942Z,62.87
2022-08-19T10:32:52.278Z,63.10
2022-08-19T10:33:53.456Z,62.21
2022-08-19T10:34:52.246Z,61.69
2022-08-19T10:35:56.799Z,61.26
2022-08-19T10:36:56.464Z,60.41
2022-08-19T10:37:56.996Z,60.41
2022-08-19T10:38:56.210Z,60.51
2022-08-19T10:39:52.288Z,63.02
2022-08-19T10:40:52.208Z,61.76
2022-08-19T10:41:52.198Z,62.08
2022-08-19T10:42:52.205Z,63.31
2022-08-19T10:43:52.187Z,62.74
2022-08-19T10:44:52.265Z,64.62
2022-08-19T10:45:52.595Z,64.03
2022-08-19T10:46:52.167Z,64.53
2022-08-19T10:47:52.167Z,65.65
2022-08-19T10:48:52.155Z,64.92
2022-08-19T10:49:52.188Z,65.85
2022-08-19T10:50:52.157Z,65.25
2022-08-19T10:51:52.127Z,64.49
2022-08-19T10:52:52.139Z,65.65
2022-08-19T10:53:52.128Z,65.65
2022-08-19T10:54:52.117Z,66.11
2022-08-19T10:55:52.106Z,62.78
2022-08-19T10:56:52.101Z,61.86
2022-08-19T10:58:02.207Z,60.41
2022-08-19T10:58:52.086Z,59.14
2022-08-19T10:59:52.076Z,58.19
2022-08-19T11:00:52.153Z,57.92
2022-08-19T11:01:52.060Z,57.92
2022-08-19T11:02:52.155Z,58.20
2022-08-19T11:03:52.057Z,60.24
2022-08-19T11:04:52.047Z,59.00
2022-08-19T11:05:52.038Z,57.56
2022-08-19T11:06:52.027Z,57.50
2022-08-19T11:07:52.384Z,54.68
2022-08-19T11:08:52.024Z,54.21
2022-08-19T11:09:52.009Z,53.86
2022-08-19T11:10:51.998Z,52.98
2022-08-19T11:11:51.990Z,53.34
2022-08-19T11:12:52.008Z,51.89
2022-08-19T11:13:51.988Z,51.84
2022-08-19T11:14:51.998Z,54.71
2022-08-19T11:15:51.968Z,52.70
2022-08-19T11:16:51.968Z,52.83
2022-08-19T11:17:51.966Z,53.86
2022-08-19T11:18:51.955Z,52.63
2022-08-19T11:19:51.948Z,52.04
2022-08-19T11:20:51.938Z,52.68
2022-08-19T11:21:51.937Z,52.46
2022-08-19T11:22:51.940Z,53.22
2022-08-19T11:23:51.929Z,51.67
2022-08-19T11:24:51.919Z,51.22
2022-08-19T11:25:51.904Z,51.89
2022-08-19T11:26:51.899Z,53.20
2022-08-19T11:27:51.899Z,54.53
2022-08-19T11:28:51.880Z,55.01
2022-08-19T11:29:51.877Z,56.62
2022-08-19T11:30:51.868Z,55.70
2022-08-19T11:31:51.858Z,54.04
2022-08-19T11:32:51.869Z,53.39
2022-08-19T11:33:51.869Z,52.14
2022-08-19T11:34:51.849Z,50.78
2022-08-19T11:35:51.828Z,48.39
2022-08-19T11:36:51.831Z,48.52
2022-08-19T11:37:51.880Z,49.04
2022-08-19T11:38:51.818Z,46.73
2022-08-19T11:39:53.583Z,46.73
2022-08-19T11:40:51.809Z,46.44
2022-08-19T11:41:51.789Z,47.71
2022-08-19T11:42:51.807Z,47.69
2022-08-19T11:43:51.799Z,45.92
2022-08-19T11:44:51.780Z,47.51
2022-08-19T11:45:52.550Z,48.39
2022-08-19T11:46:52.099Z,47.61
2022-08-19T11:47:51.879Z,47.29
2022-08-19T11:48:51.760Z,46.70
2022-08-19T11:49:51.769Z,47.69
2022-08-19T11:50:51.757Z,48.42
2022-08-19T11:51:51.738Z,50.19
2022-08-19T11:52:51.779Z,51.40
2022-08-19T11:53:51.734Z,51.28
2022-08-19T11:54:51.880Z,51.87
2022-08-19T11:55:51.720Z,52.66
2022-08-19T11:56:51.713Z,53.33
2022-08-19T11:57:51.710Z,52.19
2022-08-19T11:58:51.697Z,51.18
2022-08-19T11:59:51.690Z,50.63
2022-08-19T12:00:51.682Z,51.40
2022-08-19T12:01:51.682Z,50.76
2022-08-19T12:02:51.670Z,52.14
2022-08-19T12:03:51.774Z,52.06
2022-08-19T12:04:51.661Z,52.68
2022-08-19T12:05:51.640Z,53.99
2022-08-19T12:06:51.652Z,53.34
2022-08-19T12:07:51.632Z,52.26
2022-08-19T12:08:51.640Z,54.11
2022-08-19T12:09:51.619Z,54.93
2022-08-19T12:10:51.611Z,55.75
2022-08-19T12:11:51.609Z,55.13
2022-08-19T12:12:58.920Z,54.36
2022-08-19T12:13:51.618Z,52.04
2022-08-19T12:14:51.591Z,50.78
2022-08-19T12:15:51.581Z,51.28
2022-08-19T12:16:52.455Z,51.57
2022-08-19T12:17:51.583Z,50.29
2022-08-19T12:18:51.583Z,51.35
2022-08-19T12:19:51.562Z,51.10
2022-08-19T12:20:51.561Z,50.90
2022-08-19T12:21:51.540Z,51.20
2022-08-19T12:22:51.539Z,51.18
2022-08-19T12:23:55.220Z,51.23
2022-08-19T12:24:51.520Z,50.83
2022-08-19T12:25:51.514Z,50.56
2022-08-19T12:26:53.383Z,51.35
2022-08-19T12:27:57.235Z,50.95
2022-08-19T12:28:51.521Z,52.61
2022-08-19T12:29:51.931Z,53.42
2022-08-19T12:30:51.492Z,53.92
2022-08-19T12:31:51.505Z,55.65
2022-08-19T12:32:51.483Z,55.85
2022-08-19T12:33:51.541Z,56.46
2022-08-19T12:34:51.451Z,57.68
2022-08-19T12:35:51.453Z,56.65
2022-08-19T12:36:51.454Z,57.34
2022-08-19T12:37:56.686Z,58.23
2022-08-19T12:38:51.441Z,57.84
2022-08-19T12:39:51.507Z,57.34
2022-08-19T12:40:51.627Z,57.97
2022-08-19T12:41:54.619Z,57.89
2022-08-19T12:42:51.422Z,59.08
2022-08-19T12:43:51.728Z,58.36
2022-08-19T12:44:51.421Z,58.56
2022-08-19T12:45:51.382Z,58.36
2022-08-19T12:46:53.861Z,58.26
2022-08-19T12:47:52.126Z,57.93
2022-08-19T12:48:55.272Z,57.02
2022-08-19T12:49:53.123Z,57.12
2022-08-19T12:50:51.352Z,56.10
2022-08-19T12:51:51.343Z,56.37
2022-08-19T12:52:51.570Z,55.55
2022-08-19T12:53:51.332Z,55.43
2022-08-19T12:54:54.554Z,54.27
2022-08-19T12:55:51.322Z,55.15
2022-08-19T12:56:51.324Z,55.52
2022-08-19T12:57:51.304Z,54.46
2022-08-19T12:58:52.804Z,54.98
2022-08-19T12:59:51.304Z,57.06